createdAt,value
2023-01-17T00:02:26.747Z,-1.31
2023-01-17T00:05:12.234Z,-1.31
2023-01-17T00:07:57.300Z,-1.14
2023-01-17T00:10:28.216Z,-1.10
2023-01-17T00:12:58.057Z,-1.07
2023-01-17T00:15:26.777Z,-1.07
2023-01-17T00:17:55.204Z,-1.09
2023-01-17T00:20:43.908Z,-1.11
2023-01-17T00:23:33.553Z,-1.10
2023-01-17T00:26:06.665Z,-1.17
2023-01-17T00:28:35.372Z,-1.15
2023-01-17T00:31:03.012Z,-1.12
2023-01-17T00:33:29.899Z,-1.07
2023-01-17T00:35:58.175Z,-1.07
2023-01-17T00:38:26.399Z,-1.08
2023-01-17T00:40:53.442Z,-1.11
2023-01-17T00:43:42.562Z,-1.07
2023-01-17T00:46:30.912Z,-0.97
2023-01-17T00:49:17.554Z,-1.04
2023-01-17T00:52:02.769Z,-1.24
2023-01-17T00:54:48.116Z,-1.16
2023-01-17T00:57:33.293Z,-1.20
2023-01-17T01:00:22.830Z,-1.35
2023-01-17T01:03:08.133Z,-1.33
2023-01-17T01:05:54.976Z,-1.33
2023-01-17T01:08:41.708Z,-1.26
2023-01-17T01:11:29.090Z,-1.29
2023-01-17T01:14:14.844Z,-1.12
2023-01-17T01:17:01.938Z,-1.11
2023-01-17T01:19:47.412Z,-1.11
2023-01-17T01:22:32.722Z,-1.28
2023-01-17T01:25:17.907Z,-1.20
2023-01-17T01:28:03.138Z,-1.34
2023-01-17T01:30:48.329Z,-1.28
2023-01-17T01:33:19.513Z,-1.31
2023-01-17T01:35:53.346Z,-1.29
2023-01-17T01:38:22.941Z,-1.36
2023-01-17T01:40:52.089Z,-1.37
2023-01-17T01:43:22.041Z,-1.41
2023-01-17T01:45:53.827Z,-1.30
2023-01-17T01:48:33.062Z,-1.01
2023-01-17T01:51:01.577Z,-1.42
2023-01-17T01:53:30.083Z,-1.51
2023-01-17T01:56:00.346Z,-1.24
2023-01-17T01:58:32.082Z,-1.28
2023-01-17T02:01:01.865Z,-1.48
2023-01-17T02:03:32.741Z,-1.48
2023-01-17T02:06:05.899Z,-1.56
2023-01-17T02:08:35.305Z,-1.58
2023-01-17T02:11:03.416Z,-1.41
2023-01-17T02:13:31.768Z,-1.12
2023-01-17T02:16:07.627Z,-1.36
2023-01-17T02:18:46.733Z,-1.21
2023-01-17T02:21:24.357Z,-1.12
2023-01-17T02:24:17.290Z,-1.23
2023-01-17T02:27:02.533Z,-1.46
2023-01-17T02:30:14.719Z,-1.52
2023-01-17T02:32:51.597Z,-1.59
2023-01-17T02:35:30.863Z,-1.51
2023-01-17T02:38:04.627Z,-1.48
2023-01-17T02:40:35.988Z,-1.60
2023-01-17T02:43:08.498Z,-1.45
2023-01-17T02:45:36.438Z,-1.43
2023-01-17T02:48:08.102Z,-1.64
2023-01-17T02:50:48.609Z,-1.57
2023-01-17T02:53:35.495Z,-1.59
2023-01-17T02:56:09.267Z,-1.72
2023-01-17T02:58:47.676Z,-1.73
2023-01-17T03:01:24.660Z,-1.71
2023-01-17T03:03:57.661Z,-1.83
2023-01-17T03:06:30.525Z,-1.84
2023-01-17T03:08:58.418Z,-1.69
2023-01-17T03:11:27.212Z,-1.79
2023-01-17T03:13:56.699Z,-1.94
2023-01-17T03:16:26.853Z,-1.84
2023-01-17T03:18:56.252Z,-1.78
2023-01-17T03:21:27.366Z,-2.00
2023-01-17T03:23:55.670Z,-2.05
2023-01-17T03:26:23.586Z,-2.13
2023-01-17T03:28:51.791Z,-1.93
2023-01-17T03:31:19.989Z,-1.95
2023-01-17T03:33:48.119Z,-2.05
2023-01-17T03:36:17.434Z,-1.98
2023-01-17T03:38:45.322Z,-1.87
2023-01-17T03:41:13.219Z,-1.79
2023-01-17T03:43:41.100Z,-1.83
2023-01-17T03:46:21.644Z,-1.78
2023-01-17T03:48:50.106Z,-1.68
2023-01-17T03:51:20.828Z,-1.55
2023-01-17T03:53:50.004Z,-1.46
2023-01-17T03:56:18.036Z,-1.32
2023-01-17T03:58:47.918Z,-0.99
2023-01-17T04:01:15.898Z,-0.92
2023-01-17T04:03:43.816Z,-0.23
2023-01-17T04:06:11.768Z,0.72
2023-01-17T04:08:41.660Z,1.18
2023-01-17T04:11:09.544Z,1.24
2023-01-17T04:13:37.458Z,1.59
2023-01-17T04:16:06.113Z,1.84
2023-01-17T04:18:34.040Z,1.94
2023-01-17T04:21:01.947Z,1.99
2023-01-17T04:23:30.029Z,1.98
2023-01-17T04:25:59.303Z,2.02
2023-01-17T04:28:27.228Z,1.88
2023-01-17T04:31:00.885Z,1.84
2023-01-17T04:33:28.815Z,1.91
2023-01-17T04:35:57.098Z,1.77
2023-01-17T04:38:25.444Z,1.60
2023-01-17T04:40:56.336Z,1.87
2023-01-17T04:43:27.355Z,1.84
2023-01-17T04:45:56.470Z,1.70
2023-01-17T04:48:24.607Z,1.68
2023-01-17T04:50:52.554Z,1.70
2023-01-17T04:53:20.488Z,1.70
2023-01-17T04:55:48.369Z,1.67
2023-01-17T04:58:18.348Z,1.62
2023-01-17T05:00:50.860Z,1.58
2023-01-17T05:03:18.957Z,1.55
2023-01-17T05:05:47.181Z,1.68
2023-01-17T05:08:15.274Z,1.68
2023-01-17T05:10:43.174Z,1.62
2023-01-17T05:13:13.414Z,1.50
2023-01-17T05:15:41.447Z,1.56
2023-01-17T05:18:13.555Z,1.48
2023-01-17T05:20:41.490Z,1.62
2023-01-17T05:23:09.492Z,1.48
2023-01-17T05:25:37.421Z,1.48
2023-01-17T05:28:08.020Z,1.48
2023-01-17T05:30:35.923Z,1.47
2023-01-17T05:33:04.446Z,1.47
2023-01-17T05:35:33.767Z,1.52
2023-01-17T05:38:02.089Z,1.48
2023-01-17T05:40:31.277Z,1.39
2023-01-17T05:43:00.656Z,1.40
2023-01-17T05:45:30.654Z,1.28
2023-01-17T05:47:59.255Z,1.24
2023-01-17T05:50:28.647Z,1.28
2023-01-17T05:52:59.719Z,1.30
2023-01-17T05:55:28.754Z,1.38
2023-01-17T05:57:56.753Z,1.34
2023-01-17T06:00:25.287Z,1.38
2023-01-17T06:02:54.513Z,1.43
2023-01-17T06:05:23.069Z,1.38
2023-01-17T06:07:51.177Z,1.27
2023-01-17T06:10:22.237Z,1.28
2023-01-17T06:12:51.834Z,1.33
2023-01-17T06:15:19.878Z,1.31
2023-01-17T06:17:47.829Z,1.27
2023-01-17T06:20:15.741Z,1.31
2023-01-17T06:22:43.628Z,1.45
2023-01-17T06:25:11.526Z,1.39
2023-01-17T06:27:47.945Z,1.55
2023-01-17T06:30:23.643Z,1.61
2023-01-17T06:32:55.122Z,1.62
2023-01-17T06:35:23.041Z,1.52
2023-01-17T06:37:53.885Z,1.46
2023-01-17T06:40:22.317Z,1.46
2023-01-17T06:42:51.591Z,1.44
2023-01-17T06:45:20.140Z,1.43
2023-01-17T06:47:48.094Z,1.33
2023-01-17T06:50:16.731Z,1.39
2023-01-17T06:52:44.673Z,1.22
2023-01-17T06:55:12.653Z,1.08
2023-01-17T06:57:41.665Z,1.06
2023-01-17T07:00:13.227Z,1.00
2023-01-17T07:02:43.712Z,1.12
2023-01-17T07:05:11.599Z,0.99
2023-01-17T07:07:42.151Z,0.90
2023-01-17T07:10:11.034Z,0.93
2023-01-17T07:12:39.081Z,0.85
2023-01-17T07:15:08.266Z,0.86
2023-01-17T07:17:37.531Z,1.02
2023-01-17T07:20:06.342Z,1.13
2023-01-17T07:22:34.334Z,1.05
2023-01-17T07:25:02.265Z,0.91
2023-01-17T07:27:31.223Z,0.89
2023-01-17T07:30:00.613Z,0.89
2023-01-17T07:32:28.553Z,0.89
2023-01-17T07:34:59.362Z,1.00
2023-01-17T07:37:27.297Z,0.90
2023-01-17T07:39:55.516Z,0.79
2023-01-17T07:42:26.306Z,1.07
2023-01-17T07:44:54.162Z,1.16
2023-01-17T07:47:24.959Z,1.25
2023-01-17T07:49:52.907Z,1.45
2023-01-17T07:52:22.193Z,1.60
2023-01-17T07:54:50.114Z,1.80
2023-01-17T07:57:20.639Z,2.10
2023-01-17T07:59:50.918Z,2.23
2023-01-17T08:02:27.262Z,2.40
2023-01-17T08:04:55.187Z,2.64
2023-01-17T08:07:24.483Z,2.53
2023-01-17T08:09:54.737Z,2.71
2023-01-17T08:12:22.674Z,2.76
2023-01-17T08:14:50.573Z,2.93
2023-01-17T08:17:20.494Z,2.92
2023-01-17T08:19:50.053Z,2.90
2023-01-17T08:22:18.112Z,2.96
2023-01-17T08:24:50.502Z,3.06
2023-01-17T08:27:18.424Z,3.18
2023-01-17T08:29:48.377Z,3.42
2023-01-17T08:32:16.414Z,3.40
2023-01-17T08:34:44.319Z,3.42
2023-01-17T08:37:13.374Z,3.46
2023-01-17T08:39:42.834Z,3.54
2023-01-17T08:42:12.162Z,3.38
2023-01-17T08:44:40.177Z,3.46
2023-01-17T08:47:10.456Z,3.68
2023-01-17T08:49:39.596Z,3.62
2023-01-17T08:52:07.749Z,3.78
2023-01-17T08:54:35.693Z,3.77
2023-01-17T08:57:05.103Z,3.66
2023-01-17T08:59:34.377Z,3.69
2023-01-17T09:02:06.813Z,3.79
2023-01-17T09:04:34.800Z,3.88
2023-01-17T09:07:03.126Z,3.85
2023-01-17T09:09:32.756Z,3.94
2023-01-17T09:12:00.652Z,4.03
2023-01-17T09:14:28.602Z,3.97
2023-01-17T09:16:57.863Z,3.83
2023-01-17T09:19:25.908Z,3.96
2023-01-17T09:21:53.848Z,4.23
2023-01-17T09:24:21.715Z,4.17
2023-01-17T09:26:49.676Z,4.25
2023-01-17T09:29:19.937Z,4.26
2023-01-17T09:31:48.272Z,4.15
2023-01-17T09:34:20.069Z,4.19
2023-01-17T09:36:50.332Z,4.27
2023-01-17T09:39:18.255Z,4.36
2023-01-17T09:41:50.985Z,4.44
2023-01-17T09:44:26.140Z,4.45
2023-01-17T09:46:57.837Z,4.46
2023-01-17T09:49:35.779Z,4.54
2023-01-17T09:52:08.260Z,4.56
2023-01-17T09:54:38.290Z,4.52
2023-01-17T09:57:17.604Z,4.53
2023-01-17T10:00:02.888Z,4.58
2023-01-17T10:02:59.108Z,4.83
2023-01-17T10:05:37.985Z,5.04
2023-01-17T10:08:15.503Z,4.95
2023-01-17T10:10:44.785Z,4.91
2023-01-17T10:13:26.566Z,5.08
2023-01-17T10:16:02.680Z,5.25
2023-01-17T10:18:53.196Z,5.34
2023-01-17T10:21:31.001Z,5.28
2023-01-17T10:24:16.203Z,5.51
2023-01-17T10:26:47.175Z,5.76
2023-01-17T10:29:20.079Z,5.61
2023-01-17T10:31:52.202Z,5.55
2023-01-17T10:34:25.509Z,5.88
2023-01-17T10:37:00.460Z,6.00
2023-01-17T10:39:30.792Z,6.20
2023-01-17T10:42:00.863Z,5.98
2023-01-17T10:44:33.424Z,5.65
2023-01-17T10:47:07.686Z,5.89
2023-01-17T10:49:35.571Z,6.06
2023-01-17T10:52:14.476Z,6.38
2023-01-17T10:55:05.236Z,6.46
2023-01-17T10:57:40.941Z,6.44
2023-01-17T11:00:23.996Z,6.26
2023-01-17T11:02:53.450Z,6.52
2023-01-17T11:05:25.958Z,6.70
2023-01-17T11:08:03.295Z,6.11
2023-01-17T11:10:38.026Z,6.27
2023-01-17T11:13:09.779Z,6.55
2023-01-17T11:15:44.106Z,6.68
2023-01-17T11:18:17.228Z,6.42
2023-01-17T11:20:45.256Z,6.20
2023-01-17T11:23:17.328Z,6.54
2023-01-17T11:25:52.455Z,6.89
2023-01-17T11:28:24.102Z,6.60
2023-01-17T11:30:57.899Z,6.24
2023-01-17T11:33:45.296Z,6.32
2023-01-17T11:36:21.424Z,5.54
2023-01-17T11:38:58.661Z,5.38
2023-01-17T11:41:28.214Z,5.18
2023-01-17T11:43:57.501Z,4.93
2023-01-17T11:46:25.894Z,4.92
2023-01-17T11:48:56.674Z,4.95
2023-01-17T11:51:27.461Z,4.66
2023-01-17T11:54:04.428Z,4.67
2023-01-17T11:56:33.784Z,4.62
2023-01-17T11:59:22.122Z,4.53
2023-01-17T12:02:01.735Z,4.57
2023-01-17T12:04:32.465Z,4.68
2023-01-17T12:07:18.094Z,4.70
2023-01-17T12:09:51.955Z,4.71
2023-01-17T12:12:43.101Z,4.83
2023-01-17T12:15:26.657Z,5.00
2023-01-17T12:18:09.893Z,4.94
2023-01-17T12:20:43.524Z,4.93
2023-01-17T12:23:27.765Z,4.94
2023-01-17T12:26:11.556Z,4.88
2023-01-17T12:29:15.511Z,4.95
2023-01-17T12:31:47.105Z,4.92
2023-01-17T12:34:22.878Z,4.91
2023-01-17T12:36:54.929Z,4.86
2023-01-17T12:39:26.878Z,4.73
2023-01-17T12:42:02.108Z,4.74
2023-01-17T12:44:40.459Z,4.80
2023-01-17T12:47:10.461Z,4.81
2023-01-17T12:49:51.318Z,4.83
2023-01-17T12:52:26.111Z,4.78
2023-01-17T12:54:58.175Z,4.68
2023-01-17T12:57:30.979Z,4.69
2023-01-17T13:00:02.026Z,4.81
2023-01-17T13:02:34.610Z,4.73
2023-01-17T13:05:08.182Z,4.69
2023-01-17T13:07:43.136Z,4.61
2023-01-17T13:10:26.060Z,4.56
2023-01-17T13:12:58.968Z,4.55
2023-01-17T13:15:32.398Z,4.59
2023-01-17T13:18:04.356Z,4.59
2023-01-17T13:20:40.870Z,4.59
2023-01-17T13:23:13.868Z,4.66
2023-01-17T13:25:48.587Z,4.54
2023-01-17T13:28:23.984Z,4.50
2023-01-17T13:31:27.104Z,4.46
2023-01-17T13:34:06.101Z,4.50
2023-01-17T13:36:45.865Z,4.53
2023-01-17T13:39:59.814Z,4.38
2023-01-17T13:42:38.215Z,4.39
2023-01-17T13:45:10.550Z,4.35
2023-01-17T13:47:42.677Z,4.31
2023-01-17T13:50:48.737Z,4.33
2023-01-17T13:53:59.325Z,4.24
2023-01-17T13:56:36.222Z,4.21
2023-01-17T13:59:35.677Z,4.14
2023-01-17T14:02:22.535Z,4.16
2023-01-17T14:05:11.799Z,4.14
2023-01-17T14:07:45.038Z,4.07
2023-01-17T14:10:30.866Z,4.05
2023-01-17T14:12:58.951Z,3.98
2023-01-17T14:15:28.120Z,3.97
2023-01-17T14:17:59.779Z,3.95
2023-01-17T14:20:48.238Z,3.97
2023-01-17T14:23:48.512Z,3.96
2023-01-17T14:26:39.118Z,3.94
2023-01-17T14:29:44.395Z,3.92
2023-01-17T14:32:16.108Z,3.89
2023-01-17T14:34:47.174Z,3.87
2023-01-17T14:37:19.216Z,3.85
2023-01-17T14:39:48.054Z,3.84
2023-01-17T14:42:17.577Z,3.81
2023-01-17T14:45:01.345Z,3.76
2023-01-17T14:47:32.301Z,3.68
2023-01-17T14:50:29.332Z,3.70
2023-01-17T14:53:19.079Z,3.74
2023-01-17T14:55:56.526Z,3.60
2023-01-17T14:58:26.143Z,3.65
2023-01-17T15:00:58.249Z,3.56
2023-01-17T15:03:26.328Z,3.44
2023-01-17T15:05:56.766Z,3.39
2023-01-17T15:08:30.028Z,3.39
2023-01-17T15:11:00.199Z,3.42
2023-01-17T15:13:43.471Z,3.42
2023-01-17T15:16:19.859Z,3.27
2023-01-17T15:18:55.452Z,3.24
2023-01-17T15:21:26.244Z,3.24
2023-01-17T15:23:56.606Z,3.13
2023-01-17T15:26:26.292Z,3.23
2023-01-17T15:28:54.775Z,3.32
2023-01-17T15:31:25.937Z,3.30
2023-01-17T15:33:56.705Z,3.28
2023-01-17T15:36:30.370Z,3.32
2023-01-17T15:39:01.991Z,3.38
2023-01-17T15:41:32.860Z,3.39
2023-01-17T15:44:01.186Z,3.30
2023-01-17T15:46:32.522Z,3.16
2023-01-17T15:49:08.289Z,3.21
2023-01-17T15:51:44.799Z,3.10
2023-01-17T15:54:34.976Z,3.17
2023-01-17T15:57:25.878Z,3.08
2023-01-17T15:59:59.565Z,3.21
2023-01-17T16:02:42.969Z,3.27
2023-01-17T16:05:32.916Z,3.21
2023-01-17T16:08:24.816Z,3.18
2023-01-17T16:10:55.309Z,3.15
2023-01-17T16:13:23.230Z,3.16
2023-01-17T16:15:51.216Z,3.20
2023-01-17T16:18:20.511Z,3.21
2023-01-17T16:20:49.865Z,3.23
2023-01-17T16:23:19.146Z,3.22
2023-01-17T16:25:47.034Z,3.16
2023-01-17T16:28:14.985Z,3.15
2023-01-17T16:30:44.739Z,3.20
2023-01-17T16:33:13.366Z,3.18
2023-01-17T16:35:42.999Z,3.19
2023-01-17T16:38:13.094Z,3.15
2023-01-17T16:40:51.609Z,3.17
2023-01-17T16:43:20.753Z,3.16
2023-01-17T16:45:52.086Z,3.11
2023-01-17T16:48:20.224Z,3.08
2023-01-17T16:50:54.021Z,3.04
2023-01-17T16:53:24.726Z,3.04
2023-01-17T16:55:56.906Z,3.03
2023-01-17T16:58:25.062Z,3.03
2023-01-17T17:00:57.262Z,3.04
2023-01-17T17:03:25.186Z,3.07
2023-01-17T17:05:57.171Z,3.00
2023-01-17T17:08:25.317Z,3.04
2023-01-17T17:10:54.568Z,2.98
2023-01-17T17:13:24.560Z,3.02
2023-01-17T17:15:53.759Z,3.11
2023-01-17T17:18:21.666Z,3.04
2023-01-17T17:20:51.900Z,3.04
2023-01-17T17:23:22.177Z,2.99
2023-01-17T17:25:57.504Z,3.00
2023-01-17T17:28:25.479Z,2.96
2023-01-17T17:31:03.044Z,2.92
2023-01-17T17:33:30.985Z,2.94
2023-01-17T17:36:03.180Z,3.11
2023-01-17T17:38:34.865Z,3.14
2023-01-17T17:41:10.882Z,3.18
2023-01-17T17:43:42.615Z,3.21
2023-01-17T17:46:10.825Z,3.23
2023-01-17T17:48:38.843Z,3.25
2023-01-17T17:51:08.309Z,3.28
2023-01-17T17:53:36.265Z,3.23
2023-01-17T17:56:06.309Z,3.21
2023-01-17T17:58:36.748Z,3.19
2023-01-17T18:01:13.561Z,3.10
2023-01-17T18:03:41.831Z,3.10
2023-01-17T18:06:11.486Z,3.04
2023-01-17T18:08:40.108Z,3.03
2023-01-17T18:11:11.226Z,2.95
2023-01-17T18:13:40.590Z,2.97
2023-01-17T18:16:12.933Z,2.94
2023-01-17T18:18:44.681Z,2.88
2023-01-17T18:21:13.768Z,2.84
2023-01-17T18:23:43.388Z,2.89
2023-01-17T18:26:18.047Z,2.84
2023-01-17T18:28:47.318Z,2.82
2023-01-17T18:31:15.257Z,2.80
2023-01-17T18:33:45.354Z,2.83
2023-01-17T18:36:15.556Z,2.81
2023-01-17T18:38:46.365Z,2.85
2023-01-17T18:41:15.701Z,2.91
2023-01-17T18:43:43.803Z,2.95
2023-01-17T18:46:15.227Z,3.04
2023-01-17T18:48:43.375Z,3.13
2023-01-17T18:51:13.011Z,3.07
2023-01-17T18:53:42.385Z,3.06
2023-01-17T18:56:12.321Z,3.06
2023-01-17T18:58:42.087Z,3.10
2023-01-17T19:01:11.533Z,3.08
2023-01-17T19:03:42.388Z,2.98
2023-01-17T19:06:12.902Z,2.92
2023-01-17T19:08:40.855Z,2.93
2023-01-17T19:11:10.497Z,2.90
2023-01-17T19:13:40.491Z,2.87
2023-01-17T19:16:10.015Z,2.83
2023-01-17T19:18:38.078Z,2.86
2023-01-17T19:21:08.851Z,2.82
2023-01-17T19:23:37.513Z,2.81
2023-01-17T19:26:06.088Z,2.80
2023-01-17T19:28:35.679Z,2.80
2023-01-17T19:31:04.602Z,2.79
2023-01-17T19:33:32.732Z,2.75
2023-01-17T19:36:01.132Z,2.77
2023-01-17T19:38:30.593Z,2.68
2023-01-17T19:40:58.491Z,2.71
2023-01-17T19:43:29.150Z,2.77
2023-01-17T19:46:00.004Z,2.78
2023-01-17T19:48:31.379Z,2.82
2023-01-17T19:51:06.920Z,2.89
2023-01-17T19:53:37.179Z,2.89
2023-01-17T19:56:09.565Z,2.85
2023-01-17T19:58:37.746Z,2.80
2023-01-17T20:01:08.963Z,2.82
2023-01-17T20:03:37.695Z,2.89
2023-01-17T20:06:06.675Z,2.87
2023-01-17T20:08:36.385Z,2.84
2023-01-17T20:11:06.688Z,2.94
2023-01-17T20:13:35.087Z,2.89
2023-01-17T20:16:03.929Z,2.90
2023-01-17T20:18:35.025Z,2.87
2023-01-17T20:21:04.051Z,2.85
2023-01-17T20:23:36.432Z,2.89
2023-01-17T20:26:06.601Z,2.85
2023-01-17T20:28:35.710Z,2.80
2023-01-17T20:31:08.934Z,2.77
2023-01-17T20:33:37.224Z,2.73
2023-01-17T20:36:10.843Z,2.77
2023-01-17T20:38:46.802Z,2.76
2023-01-17T20:41:16.794Z,2.76
2023-01-17T20:43:46.008Z,2.74
2023-01-17T20:46:14.124Z,2.73
2023-01-17T20:48:45.027Z,2.73
2023-01-17T20:51:13.119Z,2.71
2023-01-17T20:53:46.169Z,2.74
2023-01-17T20:56:16.545Z,2.68
2023-01-17T20:58:44.924Z,2.63
2023-01-17T21:01:20.034Z,2.63
2023-01-17T21:03:51.508Z,2.65
2023-01-17T21:06:20.611Z,2.61
2023-01-17T21:08:50.476Z,2.63
2023-01-17T21:11:20.332Z,2.66
2023-01-17T21:13:48.800Z,2.71
2023-01-17T21:16:20.204Z,2.75
2023-01-17T21:18:48.974Z,2.72
2023-01-17T21:21:18.984Z,2.72
2023-01-17T21:23:47.030Z,2.74
2023-01-17T21:26:17.338Z,2.73
2023-01-17T21:28:47.151Z,2.69
2023-01-17T21:31:25.376Z,2.68
2023-01-17T21:33:54.275Z,2.63
2023-01-17T21:36:25.583Z,2.66
2023-01-17T21:38:56.838Z,2.65
2023-01-17T21:41:29.523Z,2.64
2023-01-17T21:43:59.009Z,2.66
2023-01-17T21:46:28.539Z,2.73
2023-01-17T21:49:04.828Z,2.72
2023-01-17T21:52:05.668Z,2.68
2023-01-17T21:54:51.729Z,2.59
2023-01-17T21:57:40.087Z,2.66
2023-01-17T22:00:12.788Z,2.54
2023-01-17T22:02:41.023Z,2.50
2023-01-17T22:05:15.062Z,2.55
2023-01-17T22:08:04.445Z,2.44
2023-01-17T22:10:35.295Z,2.43
2023-01-17T22:13:06.178Z,2.39
2023-01-17T22:15:39.215Z,2.40
2023-01-17T22:18:07.154Z,2.33
2023-01-17T22:20:35.228Z,2.27
2023-01-17T22:23:05.265Z,2.19
2023-01-17T22:25:33.575Z,2.15
2023-01-17T22:28:01.482Z,2.17
2023-01-17T22:30:30.942Z,2.09
2023-01-17T22:32:59.604Z,2.11
2023-01-17T22:35:30.856Z,2.11
2023-01-17T22:38:01.036Z,2.04
2023-01-17T22:40:28.950Z,2.11
2023-01-17T22:42:59.966Z,2.10
2023-01-17T22:45:29.015Z,2.16
2023-01-17T22:47:58.265Z,2.08
2023-01-17T22:50:26.164Z,2.13
2023-01-17T22:52:54.065Z,2.21
2023-01-17T22:55:24.163Z,2.22
2023-01-17T22:57:52.151Z,2.38
2023-01-17T23:00:20.477Z,2.42
2023-01-17T23:02:48.443Z,2.48
2023-01-17T23:05:20.558Z,2.43
2023-01-17T23:07:50.785Z,2.36
2023-01-17T23:10:39.020Z,2.53
2023-01-17T23:13:09.772Z,2.55
2023-01-17T23:15:58.513Z,2.44
2023-01-17T23:18:58.200Z,2.44
2023-01-17T23:21:47.577Z,2.42
2023-01-17T23:24:15.456Z,2.41
2023-01-17T23:27:05.275Z,2.30
2023-01-17T23:29:32.163Z,2.25
2023-01-17T23:32:00.044Z,2.28
2023-01-17T23:34:27.928Z,2.30
2023-01-17T23:36:57.217Z,2.24
2023-01-17T23:39:26.427Z,2.21
2023-01-17T23:42:12.602Z,2.11
2023-01-17T23:44:41.616Z,2.02
2023-01-17T23:47:09.516Z,2.04
2023-01-17T23:49:39.717Z,1.96
2023-01-17T23:52:09.102Z,1.99
2023-01-17T23:54:38.654Z,2.12
2023-01-17T23:57:06.566Z,2.17
2023-01-17T23:59:34.474Z,2.16
